sensor_id;sensor_type;location;lat;lon;timestamp;pressure;altitude;pressure_sealevel;temperature;humidity
45129;BME280;35512;56.312;101.728;2023-06-10T00:00:15;95373.47;;;23.29;50.54
45129;BME280;35512;56.312;101.728;2023-06-10T00:02:45;95374.97;;;23.30;50.29
45129;BME280;35512;56.312;101.728;2023-06-10T00:05:14;95382.00;;;23.31;50.15
45129;BME280;35512;56.312;101.728;2023-06-10T00:07:44;95381.94;;;23.40;50.05
45129;BME280;35512;56.312;101.728;2023-06-10T00:10:14;95375.88;;;23.51;49.82
45129;BME280;35512;56.312;101.728;2023-06-10T00:12:45;95374.25;;;23.74;49.44
45129;BME280;35512;56.312;101.728;2023-06-10T00:15:14;95368.59;;;23.93;49.00
45129;BME280;35512;56.312;101.728;2023-06-10T00:17:43;95375.59;;;24.09;48.57
45129;BME280;35512;56.312;101.728;2023-06-10T00:20:12;95366.06;;;24.25;48.39
45129;BME280;35512;56.312;101.728;2023-06-10T00:22:41;95363.44;;;24.36;47.94
45129;BME280;35512;56.312;101.728;2023-06-10T00:25:14;95361.53;;;24.42;48.09
45129;BME280;35512;56.312;101.728;2023-06-10T00:27:43;95360.47;;;24.55;48.19
45129;BME280;35512;56.312;101.728;2023-06-10T00:30:12;95354.63;;;24.68;47.94
45129;BME280;35512;56.312;101.728;2023-06-10T00:32:41;95361.19;;;24.70;47.73
45129;BME280;35512;56.312;101.728;2023-06-10T00:35:11;95363.00;;;24.73;47.68
45129;BME280;35512;56.312;101.728;2023-06-10T00:37:40;95354.31;;;24.80;47.57
45129;BME280;35512;56.312;101.728;2023-06-10T00:40:09;95355.41;;;24.89;47.61
45129;BME280;35512;56.312;101.728;2023-06-10T00:42:39;95355.81;;;25.02;47.51
45129;BME280;35512;56.312;101.728;2023-06-10T00:45:09;95348.41;;;25.14;47.51
45129;BME280;35512;56.312;101.728;2023-06-10T00:47:39;95341.91;;;25.17;47.48
45129;BME280;35512;56.312;101.728;2023-06-10T00:50:08;95352.97;;;25.38;47.17
45129;BME280;35512;56.312;101.728;2023-06-10T00:52:38;95352.84;;;25.53;47.20
45129;BME280;35512;56.312;101.728;2023-06-10T00:55:09;95350.63;;;25.57;46.87
45129;BME280;35512;56.312;101.728;2023-06-10T00:57:38;95343.13;;;25.63;46.86
45129;BME280;35512;56.312;101.728;2023-06-10T01:00:08;95340.66;;;25.65;46.81
45129;BME280;35512;56.312;101.728;2023-06-10T01:02:39;95353.28;;;25.72;46.64
45129;BME280;35512;56.312;101.728;2023-06-10T01:05:09;95358.03;;;25.71;46.62
45129;BME280;35512;56.312;101.728;2023-06-10T01:13:05;95365.19;;;26.10;46.49
45129;BME280;35512;56.312;101.728;2023-06-10T01:15:37;95367.50;;;26.17;46.07
45129;BME280;35512;56.312;101.728;2023-06-10T01:18:08;95365.03;;;26.25;46.11
45129;BME280;35512;56.312;101.728;2023-06-10T01:20:38;95365.09;;;26.36;45.98
45129;BME280;35512;56.312;101.728;2023-06-10T01:23:20;95378.72;;;26.40;45.72
45129;BME280;35512;56.312;101.728;2023-06-10T01:26:15;95368.44;;;26.46;46.04
45129;BME280;35512;56.312;101.728;2023-06-10T01:28:49;95368.78;;;26.65;45.77
45129;BME280;35512;56.312;101.728;2023-06-10T01:34:33;95369.38;;;26.75;45.18
45129;BME280;35512;56.312;101.728;2023-06-10T01:37:04;95374.69;;;26.84;44.76
45129;BME280;35512;56.312;101.728;2023-06-10T01:39:34;95376.53;;;26.93;44.82
45129;BME280;35512;56.312;101.728;2023-06-10T01:42:05;95384.03;;;26.87;44.71
45129;BME280;35512;56.312;101.728;2023-06-10T01:44:39;95387.28;;;26.79;44.71
45129;BME280;35512;56.312;101.728;2023-06-10T01:47:09;95393.56;;;26.80;44.49
45129;BME280;35512;56.312;101.728;2023-06-10T01:49:38;95400.97;;;27.00;44.09
45129;BME280;35512;56.312;101.728;2023-06-10T01:52:08;95387.97;;;27.23;43.52
45129;BME280;35512;56.312;101.728;2023-06-10T01:54:37;95389.84;;;27.72;43.46
45129;BME280;35512;56.312;101.728;2023-06-10T01:57:06;95376.97;;;28.76;42.67
45129;BME280;35512;56.312;101.728;2023-06-10T01:59:37;95386.16;;;29.72;41.44
45129;BME280;35512;56.312;101.728;2023-06-10T02:02:07;95386.22;;;30.63;40.72
45129;BME280;35512;56.312;101.728;2023-06-10T02:04:38;95393.75;;;31.37;39.58
45129;BME280;35512;56.312;101.728;2023-06-10T02:07:08;95389.63;;;32.14;38.73
45129;BME280;35512;56.312;101.728;2023-06-10T02:09:36;95389.69;;;32.41;38.09
45129;BME280;35512;56.312;101.728;2023-06-10T02:12:06;95378.78;;;32.56;37.62
45129;BME280;35512;56.312;101.728;2023-06-10T02:14:36;95383.53;;;32.88;36.37
45129;BME280;35512;56.312;101.728;2023-06-10T02:17:05;95378.47;;;33.00;35.51
45129;BME280;35512;56.312;101.728;2023-06-10T02:19:34;95382.34;;;32.97;35.33
45129;BME280;35512;56.312;101.728;2023-06-10T02:22:05;95384.22;;;33.56;34.96
45129;BME280;35512;56.312;101.728;2023-06-10T02:24:38;95385.34;;;34.29;33.91
45129;BME280;35512;56.312;101.728;2023-06-10T02:27:07;95394.78;;;34.90;33.44
45129;BME280;35512;56.312;101.728;2023-06-10T02:29:36;95398.28;;;35.19;32.34
45129;BME280;35512;56.312;101.728;2023-06-10T02:32:05;95400.13;;;35.16;31.87
45129;BME280;35512;56.312;101.728;2023-06-10T02:34:38;95393.78;;;35.16;31.41
45129;BME280;35512;56.312;101.728;2023-06-10T02:37:08;95388.16;;;35.52;31.33
45129;BME280;35512;56.312;101.728;2023-06-10T02:39:40;95371.03;;;35.79;30.45
45129;BME280;35512;56.312;101.728;2023-06-10T02:42:11;95389.03;;;35.84;30.27
45129;BME280;35512;56.312;101.728;2023-06-10T02:44:40;95379.72;;;36.28;30.33
45129;BME280;35512;56.312;101.728;2023-06-10T02:47:13;95392.84;;;36.64;30.24
45129;BME280;35512;56.312;101.728;2023-06-10T02:49:42;95389.06;;;37.00;29.38
45129;BME280;35512;56.312;101.728;2023-06-10T02:52:12;95378.81;;;37.43;29.30
45129;BME280;35512;56.312;101.728;2023-06-10T02:54:41;95398.75;;;37.70;28.88
45129;BME280;35512;56.312;101.728;2023-06-10T02:57:11;95394.78;;;37.74;28.70
45129;BME280;35512;56.312;101.728;2023-06-10T02:59:40;95387.16;;;37.10;29.08
45129;BME280;35512;56.312;101.728;2023-06-10T03:02:10;95394.13;;;37.01;28.78
45129;BME280;35512;56.312;101.728;2023-06-10T03:04:47;95391.59;;;37.36;28.63
45129;BME280;35512;56.312;101.728;2023-06-10T03:07:18;95402.81;;;37.85;28.58
45129;BME280;35512;56.312;101.728;2023-06-10T03:09:51;95402.09;;;37.84;27.93
45129;BME280;35512;56.312;101.728;2023-06-10T03:12:20;95394.66;;;38.30;27.82
45129;BME280;35512;56.312;101.728;2023-06-10T03:14:49;95399.78;;;39.09;27.25
45129;BME280;35512;56.312;101.728;2023-06-10T03:17:18;95389.81;;;39.61;26.26
45129;BME280;35512;56.312;101.728;2023-06-10T03:19:48;95407.47;;;39.79;26.44
45129;BME280;35512;56.312;101.728;2023-06-10T03:22:17;95406.03;;;39.43;26.04
45129;BME280;35512;56.312;101.728;2023-06-10T03:24:54;95412.41;;;38.15;26.89
45129;BME280;35512;56.312;101.728;2023-06-10T03:27:24;95418.72;;;37.98;26.98
45129;BME280;35512;56.312;101.728;2023-06-10T03:30:00;95415.47;;;37.12;27.60
45129;BME280;35512;56.312;101.728;2023-06-10T03:32:33;95413.84;;;36.55;28.13
45129;BME280;35512;56.312;101.728;2023-06-10T03:35:03;95415.13;;;35.56;28.48
45129;BME280;35512;56.312;101.728;2023-06-10T03:37:33;95417.66;;;34.51;29.42
45129;BME280;35512;56.312;101.728;2023-06-10T03:40:02;95420.03;;;34.26;29.81
45129;BME280;35512;56.312;101.728;2023-06-10T03:42:34;95423.75;;;34.63;29.38
45129;BME280;35512;56.312;101.728;2023-06-10T03:45:04;95421.81;;;34.58;29.36
45129;BME280;35512;56.312;101.728;2023-06-10T03:47:36;95408.78;;;34.61;29.43
45129;BME280;35512;56.312;101.728;2023-06-10T03:50:10;95404.78;;;35.95;28.76
45129;BME280;35512;56.312;101.728;2023-06-10T03:52:41;95404.56;;;37.24;27.60
45129;BME280;35512;56.312;101.728;2023-06-10T03:55:11;95410.59;;;38.60;26.88
45129;BME280;35512;56.312;101.728;2023-06-10T03:57:44;95417.03;;;40.11;25.72
45129;BME280;35512;56.312;101.728;2023-06-10T04:00:16;95416.69;;;39.79;24.83
45129;BME280;35512;56.312;101.728;2023-06-10T04:02:49;95409.34;;;37.95;25.99
45129;BME280;35512;56.312;101.728;2023-06-10T04:05:34;95413.28;;;36.95;26.65
45129;BME280;35512;56.312;101.728;2023-06-10T04:08:03;95425.81;;;36.25;27.01
45129;BME280;35512;56.312;101.728;2023-06-10T04:10:32;95424.00;;;35.75;27.13
45129;BME280;35512;56.312;101.728;2023-06-10T04:13:02;95433.13;;;35.24;27.54
45129;BME280;35512;56.312;101.728;2023-06-10T04:15:38;95429.16;;;34.90;28.43
45129;BME280;35512;56.312;101.728;2023-06-10T04:18:11;95431.06;;;34.45;28.26
45129;BME280;35512;56.312;101.728;2023-06-10T04:20:40;95431.50;;;33.94;28.84
45129;BME280;35512;56.312;101.728;2023-06-10T04:23:09;95438.69;;;33.55;29.05
45129;BME280;35512;56.312;101.728;2023-06-10T04:25:40;95434.28;;;33.19;29.75
45129;BME280;35512;56.312;101.728;2023-06-10T04:28:09;95440.19;;;33.02;29.79
45129;BME280;35512;56.312;101.728;2023-06-10T04:30:39;95434.06;;;33.03;29.94
45129;BME280;35512;56.312;101.728;2023-06-10T04:33:08;95438.59;;;32.93;30.42
45129;BME280;35512;56.312;101.728;2023-06-10T04:35:44;95443.66;;;32.95;30.42
45129;BME280;35512;56.312;101.728;2023-06-10T04:38:17;95439.16;;;33.05;30.25
45129;BME280;35512;56.312;101.728;2023-06-10T04:40:46;95446.44;;;33.48;29.96
45129;BME280;35512;56.312;101.728;2023-06-10T04:43:16;95447.31;;;34.26;29.81
45129;BME280;35512;56.312;101.728;2023-06-10T04:45:47;95437.69;;;35.06;29.11
45129;BME280;35512;56.312;101.728;2023-06-10T04:48:16;95445.06;;;35.24;28.52
45129;BME280;35512;56.312;101.728;2023-06-10T04:50:55;95451.81;;;35.58;28.81
45129;BME280;35512;56.312;101.728;2023-06-10T04:53:25;95444.03;;;36.85;28.11
45129;BME280;35512;56.312;101.728;2023-06-10T04:55:56;95447.22;;;38.10;26.99
45129;BME280;35512;56.312;101.728;2023-06-10T04:58:25;95455.81;;;37.86;26.36
45129;BME280;35512;56.312;101.728;2023-06-10T05:00:55;95448.63;;;38.26;26.25
45129;BME280;35512;56.312;101.728;2023-06-10T05:03:25;95441.56;;;39.11;25.81
45129;BME280;35512;56.312;101.728;2023-06-10T05:05:55;95438.34;;;39.94;25.46
45129;BME280;35512;56.312;101.728;2023-06-10T05:08:24;95435.16;;;40.82;24.49
45129;BME280;35512;56.312;101.728;2023-06-10T05:10:53;95434.34;;;41.28;24.07
45129;BME280;35512;56.312;101.728;2023-06-10T05:13:22;95431.22;;;41.14;23.55
45129;BME280;35512;56.312;101.728;2023-06-10T05:15:51;95432.31;;;39.80;24.53
45129;BME280;35512;56.312;101.728;2023-06-10T05:18:20;95424.16;;;37.96;25.62
45129;BME280;35512;56.312;101.728;2023-06-10T05:20:49;95436.44;;;36.03;27.58
45129;BME280;35512;56.312;101.728;2023-06-10T05:23:18;95439.81;;;34.42;28.75
45129;BME280;35512;56.312;101.728;2023-06-10T05:25:47;95429.94;;;32.64;31.09
45129;BME280;35512;56.312;101.728;2023-06-10T05:28:16;95440.44;;;31.55;32.71
45129;BME280;35512;56.312;101.728;2023-06-10T05:30:45;95441.09;;;31.42;32.87
45129;BME280;35512;56.312;101.728;2023-06-10T05:33:14;95433.31;;;33.03;31.90
45129;BME280;35512;56.312;101.728;2023-06-10T05:35:43;95425.06;;;34.91;29.69
45129;BME280;35512;56.312;101.728;2023-06-10T05:38:12;95431.59;;;34.65;29.32
45129;BME280;35512;56.312;101.728;2023-06-10T05:40:41;95444.88;;;33.74;29.40
45129;BME280;35512;56.312;101.728;2023-06-10T05:43:10;95440.84;;;33.08;30.69
45129;BME280;35512;56.312;101.728;2023-06-10T05:45:39;95429.97;;;33.05;30.45
45129;BME280;35512;56.312;101.728;2023-06-10T05:48:09;95434.41;;;33.40;30.15
45129;BME280;35512;56.312;101.728;2023-06-10T05:50:37;95427.88;;;34.28;29.98
45129;BME280;35512;56.312;101.728;2023-06-10T05:53:08;95432.97;;;36.64;28.46
45129;BME280;35512;56.312;101.728;2023-06-10T05:55:44;95430.50;;;38.62;26.55
45129;BME280;35512;56.312;101.728;2023-06-10T05:58:14;95450.88;;;39.38;25.62
45129;BME280;35512;56.312;101.728;2023-06-10T06:00:44;95447.72;;;39.69;24.83
45129;BME280;35512;56.312;101.728;2023-06-10T06:03:14;95457.91;;;39.82;24.24
45129;BME280;35512;56.312;101.728;2023-06-10T06:05:43;95445.00;;;40.44;23.55
45129;BME280;35512;56.312;101.728;2023-06-10T06:08:15;95444.78;;;41.26;23.11
45129;BME280;35512;56.312;101.728;2023-06-10T06:10:46;95446.88;;;41.54;22.11
45129;BME280;35512;56.312;101.728;2023-06-10T06:13:18;95443.59;;;41.68;22.27
45129;BME280;35512;56.312;101.728;2023-06-10T06:15:47;95439.31;;;41.37;21.77
45129;BME280;35512;56.312;101.728;2023-06-10T06:18:16;95431.94;;;41.15;21.32
45129;BME280;35512;56.312;101.728;2023-06-10T06:20:46;95435.03;;;40.80;21.69
45129;BME280;35512;56.312;101.728;2023-06-10T06:23:15;95440.16;;;41.20;21.83
45129;BME280;35512;56.312;101.728;2023-06-10T06:25:44;95436.13;;;41.23;21.73
45129;BME280;35512;56.312;101.728;2023-06-10T06:28:13;95428.84;;;41.60;21.59
45129;BME280;35512;56.312;101.728;2023-06-10T06:30:42;95427.34;;;41.68;20.95
45129;BME280;35512;56.312;101.728;2023-06-10T06:33:11;95424.06;;;41.23;21.34
45129;BME280;35512;56.312;101.728;2023-06-10T06:35:40;95417.34;;;40.99;21.30
45129;BME280;35512;56.312;101.728;2023-06-10T06:38:09;95408.88;;;41.09;21.62
45129;BME280;35512;56.312;101.728;2023-06-10T06:40:38;95421.56;;;41.37;21.28
45129;BME280;35512;56.312;101.728;2023-06-10T06:43:07;95409.28;;;41.25;20.40
45129;BME280;35512;56.312;101.728;2023-06-10T06:45:37;95413.13;;;40.90;20.55
45129;BME280;35512;56.312;101.728;2023-06-10T06:48:05;95408.03;;;40.69;20.67
45129;BME280;35512;56.312;101.728;2023-06-10T06:50:35;95406.97;;;40.64;20.63
45129;BME280;35512;56.312;101.728;2023-06-10T06:53:05;95408.03;;;40.69;20.75
45129;BME280;35512;56.312;101.728;2023-06-10T06:55:34;95410.16;;;40.88;20.75
45129;BME280;35512;56.312;101.728;2023-06-10T06:58:03;95414.09;;;41.32;20.58
45129;BME280;35512;56.312;101.728;2023-06-10T07:00:33;95417.97;;;41.66;20.15
45129;BME280;35512;56.312;101.728;2023-06-10T07:03:04;95404.97;;;41.53;19.77
45129;BME280;35512;56.312;101.728;2023-06-10T07:05:33;95409.16;;;41.32;20.04
45129;BME280;35512;56.312;101.728;2023-06-10T07:08:03;95408.25;;;41.69;20.03
45129;BME280;35512;56.312;101.728;2023-06-10T07:10:32;95419.28;;;41.84;20.33
45129;BME280;35512;56.312;101.728;2023-06-10T07:13:01;95408.84;;;41.67;19.53
45129;BME280;35512;56.312;101.728;2023-06-10T07:15:31;95403.19;;;41.48;20.07
45129;BME280;35512;56.312;101.728;2023-06-10T07:18:01;95400.38;;;41.38;19.86
45129;BME280;35512;56.312;101.728;2023-06-10T07:20:30;95404.38;;;41.74;20.22
45129;BME280;35512;56.312;101.728;2023-06-10T07:22:59;95399.59;;;41.77;19.33
45129;BME280;35512;56.312;101.728;2023-06-10T07:25:28;95391.13;;;41.28;19.74
45129;BME280;35512;56.312;101.728;2023-06-10T07:27:57;95384.22;;;40.82;20.25
45129;BME280;35512;56.312;101.728;2023-06-10T07:30:26;95381.81;;;40.59;19.77
45129;BME280;35512;56.312;101.728;2023-06-10T07:32:55;95388.84;;;40.30;20.39
45129;BME280;35512;56.312;101.728;2023-06-10T07:35:24;95382.06;;;40.06;20.59
45129;BME280;35512;56.312;101.728;2023-06-10T07:37:53;95397.56;;;39.60;20.92
45129;BME280;35512;56.312;101.728;2023-06-10T07:40:23;95391.34;;;39.27;20.92
45129;BME280;35512;56.312;101.728;2023-06-10T07:42:54;95398.06;;;39.14;20.77
45129;BME280;35512;56.312;101.728;2023-06-10T07:45:23;95393.28;;;38.38;21.04
45129;BME280;35512;56.312;101.728;2023-06-10T07:47:53;95393.28;;;37.72;21.52
45129;BME280;35512;56.312;101.728;2023-06-10T07:50:23;95383.63;;;36.94;22.39
45129;BME280;35512;56.312;101.728;2023-06-10T07:52:52;95392.66;;;36.23;22.92
45129;BME280;35512;56.312;101.728;2023-06-10T07:55:21;95386.09;;;35.45;23.23
45129;BME280;35512;56.312;101.728;2023-06-10T07:57:50;95389.56;;;34.94;23.81
45129;BME280;35512;56.312;101.728;2023-06-10T08:00:20;95386.69;;;34.57;24.79
45129;BME280;35512;56.312;101.728;2023-06-10T08:02:49;95390.31;;;34.23;24.86
45129;BME280;35512;56.312;101.728;2023-06-10T08:05:19;95389.97;;;33.84;25.64
45129;BME280;35512;56.312;101.728;2023-06-10T08:07:49;95388.78;;;33.32;25.82
45129;BME280;35512;56.312;101.728;2023-06-10T08:10:18;95387.19;;;33.10;26.34
45129;BME280;35512;56.312;101.728;2023-06-10T08:12:49;95377.63;;;33.05;26.91
45129;BME280;35512;56.312;101.728;2023-06-10T08:15:18;95378.78;;;33.10;26.94
45129;BME280;35512;56.312;101.728;2023-06-10T08:17:47;95379.09;;;33.19;26.79
45129;BME280;35512;56.312;101.728;2023-06-10T08:20:16;95385.13;;;33.24;27.06
45129;BME280;35512;56.312;101.728;2023-06-10T08:22:46;95387.94;;;32.97;27.50
45129;BME280;35512;56.312;101.728;2023-06-10T08:25:15;95378.88;;;32.64;27.78
45129;BME280;35512;56.312;101.728;2023-06-10T08:27:44;95371.78;;;32.49;28.20
45129;BME280;35512;56.312;101.728;2023-06-10T08:30:13;95374.56;;;32.49;27.97
45129;BME280;35512;56.312;101.728;2023-06-10T08:32:42;95381.00;;;32.44;28.21
45129;BME280;35512;56.312;101.728;2023-06-10T08:35:11;95380.97;;;32.31;28.64
45129;BME280;35512;56.312;101.728;2023-06-10T08:37:40;95374.41;;;32.28;28.63
45129;BME280;35512;56.312;101.728;2023-06-10T08:40:11;95375.41;;;32.31;28.57
45129;BME280;35512;56.312;101.728;2023-06-10T08:42:44;95366.13;;;32.23;28.94
45129;BME280;35512;56.312;101.728;2023-06-10T08:45:17;95360.69;;;32.30;28.87
45129;BME280;35512;56.312;101.728;2023-06-10T08:47:50;95362.28;;;32.26;28.98
45129;BME280;35512;56.312;101.728;2023-06-10T08:50:22;95360.50;;;32.09;29.04
45129;BME280;35512;56.312;101.728;2023-06-10T08:52:57;95362.19;;;31.99;29.19
45129;BME280;35512;56.312;101.728;2023-06-10T08:55:30;95367.44;;;31.89;29.10
45129;BME280;35512;56.312;101.728;2023-06-10T08:58:01;95371.16;;;31.92;29.59
45129;BME280;35512;56.312;101.728;2023-06-10T09:00:32;95376.41;;;31.82;29.61
45129;BME280;35512;56.312;101.728;2023-06-10T09:03:04;95371.09;;;31.65;29.75
45129;BME280;35512;56.312;101.728;2023-06-10T09:05:34;95371.19;;;31.53;30.05
45129;BME280;35512;56.312;101.728;2023-06-10T09:08:08;95367.81;;;31.42;30.15
45129;BME280;35512;56.312;101.728;2023-06-10T09:10:38;95376.31;;;31.30;30.06
45129;BME280;35512;56.312;101.728;2023-06-10T09:13:07;95367.66;;;31.15;30.19
45129;BME280;35512;56.312;101.728;2023-06-10T09:15:36;95372.31;;;31.07;30.30
45129;BME280;35512;56.312;101.728;2023-06-10T09:18:05;95382.00;;;31.00;30.34
45129;BME280;35512;56.312;101.728;2023-06-10T09:20:35;95380.44;;;30.80;30.63
45129;BME280;35512;56.312;101.728;2023-06-10T09:23:04;95376.53;;;30.70;31.10
45129;BME280;35512;56.312;101.728;2023-06-10T09:25:36;95371.47;;;30.68;31.23
45129;BME280;35512;56.312;101.728;2023-06-10T09:28:13;95375.75;;;30.69;31.77
45129;BME280;35512;56.312;101.728;2023-06-10T09:30:43;95386.88;;;30.75;31.37
45129;BME280;35512;56.312;101.728;2023-06-10T09:33:14;95391.44;;;30.72;31.83
45129;BME280;35512;56.312;101.728;2023-06-10T09:35:47;95381.03;;;30.73;31.71
45129;BME280;35512;56.312;101.728;2023-06-10T09:38:21;95386.09;;;30.74;31.70
45129;BME280;35512;56.312;101.728;2023-06-10T09:40:52;95372.41;;;30.76;31.62
45129;BME280;35512;56.312;101.728;2023-06-10T09:43:21;95386.91;;;30.69;31.85
45129;BME280;35512;56.312;101.728;2023-06-10T09:45:51;95376.94;;;30.55;32.05
45129;BME280;35512;56.312;101.728;2023-06-10T09:48:23;95391.56;;;30.30;32.38
45129;BME280;35512;56.312;101.728;2023-06-10T09:50:52;95390.50;;;30.03;33.24
45129;BME280;35512;56.312;101.728;2023-06-10T09:53:21;95396.19;;;29.92;33.83
45129;BME280;35512;56.312;101.728;2023-06-10T09:55:52;95398.44;;;29.93;33.88
45129;BME280;35512;56.312;101.728;2023-06-10T09:58:37;95399.19;;;29.94;33.78
45129;BME280;35512;56.312;101.728;2023-06-10T10:01:09;95401.97;;;29.94;33.87
45129;BME280;35512;56.312;101.728;2023-06-10T10:03:50;95403.00;;;29.91;34.23
45129;BME280;35512;56.312;101.728;2023-06-10T10:06:20;95404.78;;;29.88;34.30
45129;BME280;35512;56.312;101.728;2023-06-10T10:08:50;95408.34;;;29.83;34.48
45129;BME280;35512;56.312;101.728;2023-06-10T10:11:21;95415.97;;;29.77;34.39
45129;BME280;35512;56.312;101.728;2023-06-10T10:13:54;95410.97;;;29.64;34.37
45129;BME280;35512;56.312;101.728;2023-06-10T10:16:31;95411.38;;;29.38;34.98
45129;BME280;35512;56.312;101.728;2023-06-10T10:19:08;95412.69;;;29.20;35.29
45129;BME280;35512;56.312;101.728;2023-06-10T10:21:43;95409.25;;;28.96;35.82
45129;BME280;35512;56.312;101.728;2023-06-10T10:24:20;95421.66;;;28.73;35.82
45129;BME280;35512;56.312;101.728;2023-06-10T10:26:50;95421.16;;;28.57;36.10
45129;BME280;35512;56.312;101.728;2023-06-10T10:29:31;95411.34;;;28.50;36.44
45129;BME280;35512;56.312;101.728;2023-06-10T10:32:02;95420.44;;;28.57;36.57
45129;BME280;35512;56.312;101.728;2023-06-10T10:37:26;95428.72;;;28.79;36.11
45129;BME280;35512;56.312;101.728;2023-06-10T10:39:55;95434.53;;;28.87;35.97
45129;BME280;35512;56.312;101.728;2023-06-10T10:42:25;95432.78;;;28.78;36.29
45129;BME280;35512;56.312;101.728;2023-06-10T10:44:55;95431.28;;;28.55;36.49
45129;BME280;35512;56.312;101.728;2023-06-10T10:47:27;95434.31;;;28.34;36.70
45129;BME280;35512;56.312;101.728;2023-06-10T10:49:59;95427.00;;;28.14;36.71
45129;BME280;35512;56.312;101.728;2023-06-10T10:53:07;95430.78;;;28.11;37.20
45129;BME280;35512;56.312;101.728;2023-06-10T10:55:35;95427.25;;;28.10;37.12
45129;BME280;35512;56.312;101.728;2023-06-10T10:58:06;95432.81;;;28.05;37.00
45129;BME280;35512;56.312;101.728;2023-06-10T11:00:44;95439.56;;;27.87;37.19
45129;BME280;35512;56.312;101.728;2023-06-10T11:03:15;95439.53;;;27.70;37.80
45129;BME280;35512;56.312;101.728;2023-06-10T11:05:49;95447.28;;;27.48;37.55
45129;BME280;35512;56.312;101.728;2023-06-10T11:11:18;95444.34;;;27.14;37.94
45129;BME280;35512;56.312;101.728;2023-06-10T11:16:31;95448.53;;;26.93;38.20
45129;BME280;35512;56.312;101.728;2023-06-10T11:19:06;95440.44;;;26.89;38.37
45129;BME280;35512;56.312;101.728;2023-06-10T11:22:01;95444.66;;;26.79;38.85
45129;BME280;35512;56.312;101.728;2023-06-10T11:24:30;95449.16;;;26.76;39.00
45129;BME280;35512;56.312;101.728;2023-06-10T11:29:58;95445.31;;;26.68;39.10
45129;BME280;35512;56.312;101.728;2023-06-10T11:32:33;95451.63;;;26.69;39.14
45129;BME280;35512;56.312;101.728;2023-06-10T11:35:03;95452.63;;;26.65;39.03
45129;BME280;35512;56.312;101.728;2023-06-10T11:37:33;95454.59;;;26.59;39.16
45129;BME280;35512;56.312;101.728;2023-06-10T11:40:02;95452.56;;;26.60;39.33
45129;BME280;35512;56.312;101.728;2023-06-10T11:42:32;95459.91;;;26.63;39.49
45129;BME280;35512;56.312;101.728;2023-06-10T11:45:01;95458.63;;;26.64;39.55
45129;BME280;35512;56.312;101.728;2023-06-10T11:47:31;95464.66;;;26.62;39.29
45129;BME280;35512;56.312;101.728;2023-06-10T11:50:00;95464.38;;;26.55;39.77
45129;BME280;35512;56.312;101.728;2023-06-10T11:52:31;95446.91;;;26.43;39.58
45129;BME280;35512;56.312;101.728;2023-06-10T11:55:02;95463.97;;;26.36;40.02
45129;BME280;35512;56.312;101.728;2023-06-10T11:57:34;95449.00;;;26.22;39.83
45129;BME280;35512;56.312;101.728;2023-06-10T12:00:08;95454.94;;;26.09;40.04
45129;BME280;35512;56.312;101.728;2023-06-10T12:02:41;95453.28;;;25.96;40.16
45129;BME280;35512;56.312;101.728;2023-06-10T12:05:12;95472.75;;;25.81;40.23
45129;BME280;35512;56.312;101.728;2023-06-10T12:07:41;95468.63;;;25.71;40.78
45129;BME280;35512;56.312;101.728;2023-06-10T12:10:10;95485.09;;;25.60;40.78
45129;BME280;35512;56.312;101.728;2023-06-10T12:12:54;95481.16;;;25.46;41.20
45129;BME280;35512;56.312;101.728;2023-06-10T12:15:26;95478.16;;;25.29;41.29
45129;BME280;35512;56.312;101.728;2023-06-10T12:17:57;95483.84;;;25.20;41.33
45129;BME280;35512;56.312;101.728;2023-06-10T12:20:28;95479.69;;;25.09;41.51
45129;BME280;35512;56.312;101.728;2023-06-10T12:22:57;95488.09;;;25.00;41.49
45129;BME280;35512;56.312;101.728;2023-06-10T12:25:29;95487.63;;;24.87;42.07
45129;BME280;35512;56.312;101.728;2023-06-10T12:27:58;95486.81;;;24.80;42.06
45129;BME280;35512;56.312;101.728;2023-06-10T12:30:27;95501.22;;;24.70;42.35
45129;BME280;35512;56.312;101.728;2023-06-10T12:32:57;95499.59;;;24.63;42.59
45129;BME280;35512;56.312;101.728;2023-06-10T12:35:27;95493.97;;;24.57;42.74
45129;BME280;35512;56.312;101.728;2023-06-10T12:38:06;95497.13;;;24.50;43.12
45129;BME280;35512;56.312;101.728;2023-06-10T12:40:40;95495.59;;;24.49;42.99
45129;BME280;35512;56.312;101.728;2023-06-10T12:43:13;95499.03;;;24.44;43.24
45129;BME280;35512;56.312;101.728;2023-06-10T12:45:42;95495.69;;;24.40;43.41
45129;BME280;35512;56.312;101.728;2023-06-10T12:48:23;95503.88;;;24.34;43.33
45129;BME280;35512;56.312;101.728;2023-06-10T12:50:57;95497.31;;;24.32;43.55
45129;BME280;35512;56.312;101.728;2023-06-10T12:53:26;95499.03;;;24.29;43.62
45129;BME280;35512;56.312;101.728;2023-06-10T12:55:55;95499.22;;;24.25;43.79
45129;BME280;35512;56.312;101.728;2023-06-10T12:58:26;95499.91;;;24.20;43.72
45129;BME280;35512;56.312;101.728;2023-06-10T13:00:55;95505.28;;;24.14;44.06
45129;BME280;35512;56.312;101.728;2023-06-10T13:03:25;95510.25;;;24.10;44.10
45129;BME280;35512;56.312;101.728;2023-06-10T13:05:55;95510.91;;;24.05;44.29
45129;BME280;35512;56.312;101.728;2023-06-10T13:08:24;95508.50;;;23.98;44.10
45129;BME280;35512;56.312;101.728;2023-06-10T13:10:53;95509.38;;;23.89;44.73
45129;BME280;35512;56.312;101.728;2023-06-10T13:13:22;95518.47;;;23.80;45.02
45129;BME280;35512;56.312;101.728;2023-06-10T13:15:51;95520.81;;;23.73;45.13
45129;BME280;35512;56.312;101.728;2023-06-10T13:18:20;95529.16;;;23.63;45.27